Time;durP1;ratioP1;P1;durP2;ratioP2;P2;SDS_P1;SDS_P2;PMS_P1;PMS_P2;Temp;Humidity;BMP_temperature;BMP_pressure;BME280_temperature;BME280_humidity;BME280_pressure;Samples;Min_cycle;Max_cycle;Signal;HPM_P1;HPM_P2
2023/06/16 00:00:13;;;;;;;4.50;4.10;;;;;;;17.71;53.07;101501.78;5034185;27;109590;-46
2023/06/16 00:02:43;;;;;;;3.83;3.53;;;;;;;17.70;53.16;101500.28;5034069;27;97683;-46
2023/06/16 00:05:10;;;;;;;3.77;3.47;;;;;;;17.68;53.16;101502.81;5037387;27;96886;-46
2023/06/16 00:07:36;;;;;;;4.70;3.70;;;;;;;17.64;53.24;101497.56;5035714;27;97044;-46
2023/06/16 00:10:03;;;;;;;3.90;3.60;;;;;;;17.64;53.09;101505.91;5035517;27;97057;-46
2023/06/16 00:12:28;;;;;;;3.87;3.60;;;;;;;17.60;53.19;101502.66;5035905;27;96724;-46
2023/06/16 00:14:54;;;;;;;4.00;3.70;;;;;;;17.55;53.23;101506.25;5034432;27;97447;-47
2023/06/16 00:17:20;;;;;;;4.43;4.03;;;;;;;17.54;53.23;101509.56;5034846;27;98412;-46
2023/06/16 00:19:47;;;;;;;4.60;4.20;;;;;;;17.48;53.25;101508.78;5036687;27;97445;-46
2023/06/16 00:22:12;;;;;;;4.70;3.50;;;;;;;17.47;53.39;101510.09;5034974;27;97196;-46
2023/06/16 00:24:37;;;;;;;4.87;4.47;;;;;;;17.44;53.40;101514.66;5036922;27;96995;-46
2023/06/16 00:27:04;;;;;;;4.87;4.40;;;;;;;17.42;53.23;101510.88;5036158;27;98945;-46
2023/06/16 00:29:29;;;;;;;4.87;4.47;;;;;;;17.38;53.48;101507.63;5042426;27;97113;-47
2023/06/16 00:31:55;;;;;;;4.57;4.17;;;;;;;17.34;53.59;101499.59;5037062;27;96772;-46
2023/06/16 00:34:21;;;;;;;4.20;3.90;;;;;;;17.34;53.58;101499.59;5039393;27;97542;-46
2023/06/16 00:36:46;;;;;;;4.47;4.17;;;;;;;17.35;53.62;101497.53;5038110;27;97372;-46
2023/06/16 00:39:11;;;;;;;4.17;3.87;;;;;;;17.34;53.50;101496.81;5034026;27;97035;-46
2023/06/16 00:41:37;;;;;;;4.57;4.17;;;;;;;17.33;53.67;101494.53;5034418;27;96877;-46
2023/06/16 00:44:03;;;;;;;3.90;3.60;;;;;;;17.31;53.70;101497.81;5036446;27;97627;-46
2023/06/16 00:46:32;;;;;;;3.80;3.50;;;;;;;17.32;53.58;101501.38;5036162;27;97808;-46
2023/06/16 00:48:58;;;;;;;4.43;4.10;;;;;;;17.29;53.71;101496.84;5036711;27;98192;-46
2023/06/16 00:51:26;;;;;;;4.37;4.07;;;;;;;17.27;54.02;101488.25;5035966;27;97221;-46
2023/06/16 00:53:52;;;;;;;3.93;3.63;;;;;;;17.26;53.88;101490.28;5037808;27;96840;-46
2023/06/16 00:56:21;;;;;;;5.70;4.03;;;;;;;17.26;53.93;101490.28;5036040;27;97121;-46
2023/06/16 00:58:50;;;;;;;4.20;3.90;;;;;;;17.24;53.81;101490.03;5036008;27;97063;-48
2023/06/16 01:01:15;;;;;;;4.10;3.80;;;;;;;17.22;53.65;101485.00;5034598;27;96966;-48
2023/06/16 01:03:40;;;;;;;4.00;3.70;;;;;;;17.18;53.70;101486.56;5035140;27;97249;-48
2023/06/16 01:06:30;;;;;;;3.90;3.63;;;;;;;17.15;54.08;101490.38;5033579;27;97436;-48
2023/06/16 01:09:03;;;;;;;3.33;3.13;;;;;;;17.14;54.42;101480.53;5033045;27;96806;-47
2023/06/16 01:11:37;;;;;;;4.63;4.23;;;;;;;17.10;54.63;101483.56;5038380;27;97193;-48
2023/06/16 01:14:19;;;;;;;3.97;3.67;;;;;;;17.05;55.11;101473.28;5036482;27;97383;-48
2023/06/16 01:16:46;;;;;;;4.20;3.80;;;;;;;17.03;54.05;101481.38;5033634;27;96904;-47
2023/06/16 01:19:22;;;;;;;5.00;3.90;;;;;;;17.03;54.70;101478.59;5036090;27;97482;-46
2023/06/16 01:21:54;;;;;;;5.97;4.23;;;;;;;17.02;54.57;101485.41;5033995;27;96689;-47
2023/06/16 01:24:24;;;;;;;3.70;3.40;;;;;;;17.02;54.19;101481.88;5031924;27;97010;-47
2023/06/16 01:26:52;;;;;;;4.63;4.27;;;;;;;17.00;53.87;101479.63;5031986;27;98543;-48
2023/06/16 01:29:21;;;;;;;4.10;3.80;;;;;;;16.95;54.32;101482.44;5034006;27;98468;-47
2023/06/16 01:31:48;;;;;;;5.00;4.60;;;;;;;16.93;54.27;101484.97;5036595;27;96609;-48
2023/06/16 01:34:14;;;;;;;3.87;3.63;;;;;;;16.90;54.29;101480.47;5032743;27;96928;-48
2023/06/16 01:36:42;;;;;;;4.50;4.10;;;;;;;16.88;54.30;101488.56;5037336;27;97074;-47
2023/06/16 01:39:09;;;;;;;4.13;3.83;;;;;;;16.85;54.42;101490.34;5036059;27;97232;-47
2023/06/16 01:41:36;;;;;;;3.93;3.63;;;;;;;16.86;54.47;101485.53;5033054;27;97062;-47
2023/06/16 01:44:04;;;;;;;4.40;4.10;;;;;;;16.85;54.63;101487.56;5035924;27;96910;-47
2023/06/16 01:46:30;;;;;;;3.90;3.60;;;;;;;16.87;54.56;101487.03;5032682;27;97159;-48
2023/06/16 01:48:56;;;;;;;4.53;4.13;;;;;;;16.86;54.54;101477.19;5032765;27;97222;-48
2023/06/16 01:51:21;;;;;;;4.83;4.43;;;;;;;16.82;54.55;101479.50;5034786;27;97409;-48
2023/06/16 01:53:48;;;;;;;4.03;3.60;;;;;;;16.80;54.47;101485.56;5034449;27;96892;-47
2023/06/16 01:56:13;;;;;;;6.30;5.27;;;;;;;16.80;54.67;101490.38;5033534;27;97127;-46
2023/06/16 01:58:39;;;;;;;4.30;4.00;;;;;;;16.79;54.58;101489.63;5038403;27;96911;-48
2023/06/16 02:01:07;;;;;;;4.77;4.37;;;;;;;16.82;54.58;101480.25;5036653;27;97291;-46
2023/06/16 02:03:56;;;;;;;4.57;4.27;;;;;;;16.83;55.53;101486.56;5032412;27;97029;-48
2023/06/16 02:06:25;;;;;;;4.77;4.27;;;;;;;16.75;54.39;101488.38;5035865;27;97054;-47
2023/06/16 02:08:54;;;;;;;6.57;4.10;;;;;;;16.71;54.60;101490.69;5034936;27;97215;-47
2023/06/16 02:11:20;;;;;;;5.20;4.03;;;;;;;16.72;54.71;101479.06;5034421;27;97281;-48
2023/06/16 02:13:46;;;;;;;4.40;4.10;;;;;;;16.72;54.71;101487.38;5034222;27;96763;-48
2023/06/16 02:16:12;;;;;;;5.13;4.03;;;;;;;16.73;54.81;101474.25;5034601;27;97967;-48
2023/06/16 02:18:38;;;;;;;4.53;4.13;;;;;;;16.73;54.91;101483.31;5031654;27;97191;-48
2023/06/16 02:21:04;;;;;;;4.57;3.93;;;;;;;16.73;54.89;101482.59;5032693;27;96857;-47
2023/06/16 02:23:29;;;;;;;4.10;3.80;;;;;;;16.74;54.56;101484.09;5031934;27;96736;-48
2023/06/16 02:25:55;;;;;;;4.23;3.93;;;;;;;16.68;54.59;101480.59;5034241;27;97470;-47
2023/06/16 02:28:20;;;;;;;4.40;4.10;;;;;;;16.62;54.70;101477.84;5033592;27;96752;-47
2023/06/16 02:30:45;;;;;;;4.17;3.87;;;;;;;16.58;54.82;101474.59;5033134;27;97609;-48
2023/06/16 02:33:15;;;;;;;4.40;4.00;;;;;;;16.57;54.83;101483.44;5034257;27;96492;-47
2023/06/16 02:35:40;;;;;;;3.87;3.67;;;;;;;16.54;54.83;101481.69;5037072;27;96802;-48
2023/06/16 02:38:07;;;;;;;4.90;4.50;;;;;;;16.53;54.67;101480.19;5036003;27;97306;-47
2023/06/16 02:40:32;;;;;;;4.57;4.27;;;;;;;16.49;54.61;101486.72;5033497;27;97187;-48
2023/06/16 02:42:58;;;;;;;4.27;3.90;;;;;;;16.43;54.84;101480.44;5032888;27;97166;-48
2023/06/16 02:45:23;;;;;;;4.27;3.87;;;;;;;16.41;54.89;101480.22;5031024;27;101504;-48
2023/06/16 02:47:48;;;;;;;4.80;4.07;;;;;;;16.40;55.00;101472.41;5033002;27;108894;-48
2023/06/16 02:50:14;;;;;;;4.23;3.93;;;;;;;16.39;55.03;101476.44;5032360;27;97136;-46
2023/06/16 02:52:42;;;;;;;4.10;3.80;;;;;;;16.38;55.15;101472.88;5034774;27;97273;-48
2023/06/16 02:55:12;;;;;;;3.93;3.63;;;;;;;16.41;55.47;101471.88;5035967;27;98611;-47
2023/06/16 02:57:37;;;;;;;3.83;3.53;;;;;;;16.42;55.25;101476.16;5035076;27;97110;-47
2023/06/16 03:00:08;;;;;;;4.43;4.03;;;;;;;16.46;55.23;101484.22;5035250;27;97035;-47
2023/06/16 03:02:34;;;;;;;4.40;4.10;;;;;;;16.46;55.18;101471.09;5037651;27;96681;-47
2023/06/16 03:05:01;;;;;;;4.37;3.97;;;;;;;16.48;55.24;101474.13;5034931;27;96897;-48
2023/06/16 03:07:31;;;;;;;3.97;3.70;;;;;;;16.49;55.38;101463.75;5035594;27;96779;-47
2023/06/16 03:09:56;;;;;;;3.80;3.60;;;;;;;16.48;55.39;101468.56;5033209;27;96681;-47
2023/06/16 03:12:22;;;;;;;4.60;4.23;;;;;;;16.49;55.29;101474.84;5034266;27;97603;-48
2023/06/16 03:14:47;;;;;;;3.77;3.37;;;;;;;16.51;55.46;101466.06;5034354;27;98687;-47
2023/06/16 03:17:13;;;;;;;4.40;4.00;;;;;;;16.52;55.51;101481.44;5031009;27;97150;-47
2023/06/16 03:19:39;;;;;;;4.00;3.63;;;;;;;16.54;55.47;101479.66;5034791;27;96929;-47
2023/06/16 03:22:05;;;;;;;4.67;4.27;;;;;;;16.54;55.45;101482.44;5034790;27;96784;-47
2023/06/16 03:24:33;;;;;;;3.90;3.60;;;;;;;16.53;55.57;101480.19;5030164;27;97323;-47
2023/06/16 03:26:58;;;;;;;5.47;3.47;;;;;;;16.55;55.49;101475.63;5030710;27;97099;-48
2023/06/16 03:29:24;;;;;;;3.90;3.60;;;;;;;16.54;55.63;101482.44;5028971;27;97341;-47
2023/06/16 03:31:49;;;;;;;3.47;3.17;;;;;;;16.54;55.70;101481.69;5034356;27;97140;-47
2023/06/16 03:34:15;;;;;;;3.63;3.37;;;;;;;16.54;55.62;101467.78;5035809;27;101297;-47
2023/06/16 03:36:40;;;;;;;3.33;3.13;;;;;;;16.54;55.74;101474.09;5035313;27;97412;-48
2023/06/16 03:39:06;;;;;;;3.20;3.00;;;;;;;16.56;55.72;101473.59;5033902;27;96984;-48
2023/06/16 03:41:34;;;;;;;3.83;3.53;;;;;;;16.60;56.02;101476.88;5032256;27;97228;-47
2023/06/16 03:44:00;;;;;;;4.53;3.43;;;;;;;16.63;56.08;101478.59;5032237;27;97613;-48
2023/06/16 03:46:29;;;;;;;3.60;3.23;;;;;;;16.61;56.04;101476.34;5032560;27;98383;-48
2023/06/16 03:48:56;;;;;;;3.30;3.10;;;;;;;16.60;56.06;101468.53;5033257;27;96994;-48
2023/06/16 03:51:23;;;;;;;5.07;3.57;;;;;;;16.64;56.00;101480.13;5035268;27;96914;-48
2023/06/16 03:53:50;;;;;;;3.60;3.40;;;;;;;16.65;56.02;101481.63;5029311;27;98771;-48
2023/06/16 03:56:16;;;;;;;4.23;3.77;;;;;;;16.64;56.16;101485.69;5033209;27;98435;-48
2023/06/16 03:58:41;;;;;;;4.53;4.13;;;;;;;16.66;55.95;101481.13;5036801;27;96845;-48
2023/06/16 04:01:09;;;;;;;4.63;3.20;;;;;;;16.67;56.10;101485.41;5032535;27;97135;-48
2023/06/16 04:03:34;;;;;;;4.30;3.90;;;;;;;16.69;56.17;101493.97;5033228;27;97202;-48
2023/06/16 04:06:00;;;;;;;3.93;3.53;;;;;;;16.71;56.24;101499.75;5033211;27;97281;-48
2023/06/16 04:08:26;;;;;;;4.47;4.07;;;;;;;16.78;56.14;101495.69;5031294;27;97170;-48
2023/06/16 04:10:57;;;;;;;4.53;3.87;;;;;;;16.81;56.03;101500.97;5034455;27;96724;-47
2023/06/16 04:13:23;;;;;;;4.40;4.00;;;;;;;16.82;56.18;101496.19;5032650;27;98270;-48
2023/06/16 04:15:48;;;;;;;3.80;3.50;;;;;;;16.85;56.30;101500.69;5030320;27;96929;-47
2023/06/16 04:18:13;;;;;;;4.40;4.10;;;;;;;16.88;56.16;101497.66;5034216;27;98726;-48
2023/06/16 04:20:39;;;;;;;4.80;4.00;;;;;;;16.90;56.28;101502.69;5034892;27;97473;-48
2023/06/16 04:23:06;;;;;;;3.97;3.67;;;;;;;16.90;56.29;101492.34;5034463;27;97824;-47
2023/06/16 04:25:32;;;;;;;3.97;3.67;;;;;;;16.93;56.37;101496.09;5033232;27;96741;-47
2023/06/16 04:27:58;;;;;;;3.53;3.33;;;;;;;16.98;56.47;101493.28;5031281;27;97362;-47
2023/06/16 04:30:24;;;;;;;4.00;3.60;;;;;;;17.04;56.55;101499.56;5032554;27;97237;-47
2023/06/16 04:32:49;;;;;;;5.23;4.20;;;;;;;17.08;56.55;101499.28;5034219;27;96599;-48
2023/06/16 04:35:15;;;;;;;4.20;3.90;;;;;;;17.12;56.63;101505.31;5034483;27;97245;-48
2023/06/16 04:37:41;;;;;;;4.13;3.83;;;;;;;17.15;56.62;101502.25;5032309;27;97184;-48
2023/06/16 04:40:08;;;;;;;4.30;3.83;;;;;;;17.20;56.57;101497.91;5035113;27;97606;-48
2023/06/16 04:42:34;;;;;;;8.67;5.03;;;;;;;17.21;56.64;101500.16;5037408;27;98855;-47
2023/06/16 04:44:59;;;;;;;4.20;3.83;;;;;;;17.22;56.67;101512.06;5035806;27;96742;-47
2023/06/16 04:47:25;;;;;;;4.50;4.17;;;;;;;17.22;56.62;101512.81;5035005;27;96848;-47
2023/06/16 04:49:50;;;;;;;4.80;4.40;;;;;;;17.24;56.69;101506.72;5035928;27;97264;-48
2023/06/16 04:52:15;;;;;;;4.60;4.00;;;;;;;17.25;56.78;101505.47;5034422;27;110388;-47
2023/06/16 04:54:41;;;;;;;4.80;4.40;;;;;;;17.27;56.74;101505.69;5035711;27;96695;-47
2023/06/16 04:57:07;;;;;;;4.50;4.20;;;;;;;17.25;56.81;101508.25;5035661;27;99704;-48
2023/06/16 04:59:32;;;;;;;4.83;4.43;;;;;;;17.27;56.78;101505.69;5034586;27;97209;-48
2023/06/16 05:01:58;;;;;;;5.10;4.37;;;;;;;17.28;56.68;101504.41;5031994;27;97189;-48
2023/06/16 05:04:23;;;;;;;5.20;4.30;;;;;;;17.31;56.74;101503.38;5032805;27;96585;-47
2023/06/16 05:06:49;;;;;;;4.83;4.47;;;;;;;17.34;56.58;101510.72;5034644;27;96968;-48
2023/06/16 05:09:14;;;;;;;4.83;4.43;;;;;;;17.32;56.67;101510.44;5038032;27;97080;-48
2023/06/16 05:11:40;;;;;;;5.03;4.20;;;;;;;17.30;56.91;101504.66;5032629;27;96712;-48
2023/06/16 05:14:05;;;;;;;5.30;4.90;;;;;;;17.32;56.98;101504.88;5033692;27;97767;-47
2023/06/16 05:16:31;;;;;;;4.20;3.90;;;;;;;17.34;56.99;101496.81;5037991;27;96828;-48
2023/06/16 05:18:56;;;;;;;5.13;4.63;;;;;;;17.38;57.12;101496.50;5036116;27;96889;-46
2023/06/16 05:21:25;;;;;;;4.57;4.27;;;;;;;17.39;57.23;101487.63;5033202;27;97545;-48
2023/06/16 05:23:53;;;;;;;4.83;4.43;;;;;;;17.43;57.43;101488.09;5035553;27;97325;-48
2023/06/16 05:26:21;;;;;;;6.00;4.67;;;;;;;17.47;57.33;101494.16;5034331;27;97148;-48
2023/06/16 05:28:46;;;;;;;5.17;4.77;;;;;;;17.52;57.48;101495.38;5036421;27;97143;-47
2023/06/16 05:31:11;;;;;;;5.73;5.23;;;;;;;17.56;57.34;101495.88;5035014;27;97413;-47
2023/06/16 05:33:37;;;;;;;5.63;5.13;;;;;;;17.62;57.31;101493.78;5035781;27;110380;-46
2023/06/16 05:36:02;;;;;;;5.33;4.23;;;;;;;17.66;57.36;101495.00;5035115;27;97404;-48
2023/06/16 05:38:27;;;;;;;5.03;4.73;;;;;;;17.72;57.16;101487.34;5034909;27;97222;-53
2023/06/16 05:40:53;;;;;;;5.97;5.37;;;;;;;17.74;57.10;101484.78;5035282;27;96835;-47
2023/06/16 05:43:18;;;;;;;5.80;5.27;;;;;;;17.76;57.35;101487.81;5034458;27;97189;-48
2023/06/16 05:45:43;;;;;;;6.10;5.60;;;;;;;17.81;57.27;101484.22;5038413;27;98478;-48
2023/06/16 05:48:09;;;;;;;6.17;5.67;;;;;;;17.86;57.27;101486.19;5036236;27;97327;-48
2023/06/16 05:50:34;;;;;;;5.83;5.27;;;;;;;17.93;57.35;101491.16;5035776;27;98445;-48
2023/06/16 05:53:00;;;;;;;5.70;5.20;;;;;;;17.97;57.20;101491.63;5036267;27;97629;-48
2023/06/16 05:55:26;;;;;;;6.57;6.00;;;;;;;18.04;57.13;101487.50;5034333;27;97055;-46
2023/06/16 05:57:51;;;;;;;5.97;5.50;;;;;;;18.11;57.35;101491.75;5034171;27;97019;-48
2023/06/16 06:00:17;;;;;;;6.40;5.80;;;;;;;18.19;57.33;101495.44;5032304;27;96978;-48
2023/06/16 06:02:42;;;;;;;6.70;5.83;;;;;;;18.25;57.38;101493.31;5032774;27;97422;-48
2023/06/16 06:05:08;;;;;;;6.27;5.77;;;;;;;18.29;57.32;101497.31;5033330;27;97013;-47
2023/06/16 06:07:33;;;;;;;6.27;5.70;;;;;;;18.35;57.23;101494.44;5032359;27;97198;-48
2023/06/16 06:09:58;;;;;;;11.70;5.87;;;;;;;18.38;57.61;101493.41;5033534;27;96987;-48
2023/06/16 06:12:23;;;;;;;7.00;6.37;;;;;;;18.41;57.46;101495.16;5029472;27;106935;-48
2023/06/16 06:14:49;;;;;;;7.37;5.60;;;;;;;18.44;57.42;101492.09;5028822;27;97333;-48
2023/06/16 06:17:15;;;;;;;8.97;6.10;;;;;;;18.47;57.53;101493.84;5030907;27;97046;-48
2023/06/16 06:19:40;;;;;;;7.73;5.83;;;;;;;18.54;57.46;101495.25;5030919;27;97298;-48
2023/06/16 06:22:05;;;;;;;6.80;6.20;;;;;;;18.58;57.70;101499.25;5029416;27;97172;-48
2023/06/16 06:24:31;;;;;;;6.33;5.83;;;;;;;18.62;57.70;101505.28;5029650;27;97167;-48
2023/06/16 06:26:57;;;;;;;8.70;6.90;;;;;;;18.67;57.79;101495.34;5030073;27;97200;-47
2023/06/16 06:29:22;;;;;;;21.83;6.23;;;;;;;18.73;57.63;101495.25;5027785;27;97965;-47
2023/06/16 06:31:47;;;;;;;6.43;5.73;;;;;;;18.72;57.60;101486.13;5029397;27;98446;-47
2023/06/16 06:34:13;;;;;;;8.67;6.40;;;;;;;18.81;57.44;101488.53;5032396;27;97266;-48
2023/06/16 06:36:39;;;;;;;7.60;6.90;;;;;;;18.85;57.48;101482.66;5032163;27;97143;-48
2023/06/16 06:39:04;;;;;;;8.20;7.47;;;;;;;18.85;57.38;101480.59;5036923;27;98036;-48
2023/06/16 06:41:29;;;;;;;8.43;7.53;;;;;;;18.85;57.63;101475.03;5032698;27;97233;-48
2023/06/16 06:43:55;;;;;;;7.30;6.60;;;;;;;18.85;57.77;101474.28;5032810;27;97113;-48
2023/06/16 06:46:20;;;;;;;7.20;6.47;;;;;;;18.87;57.58;101477.31;5033493;27;99565;-48
2023/06/16 06:48:46;;;;;;;8.93;8.03;;;;;;;18.88;57.50;101468.41;5030627;27;98485;-48
2023/06/16 06:51:13;;;;;;;7.03;6.33;;;;;;;18.94;57.69;101474.63;5033175;27;97635;-48
2023/06/16 06:53:39;;;;;;;7.60;6.70;;;;;;;19.03;57.73;101477.03;5036351;27;100272;-48
2023/06/16 06:56:05;;;;;;;9.53;6.57;;;;;;;19.13;57.62;101472.53;5034898;27;97203;-48
2023/06/16 06:58:31;;;;;;;7.63;6.90;;;;;;;19.25;57.70;101487.84;5031315;27;97818;-48
2023/06/16 07:00:56;;;;;;;7.20;6.50;;;;;;;19.38;57.48;101479.53;5031960;27;97336;-48
2023/06/16 07:03:22;;;;;;;9.70;6.60;;;;;;;19.46;57.64;101473.31;5033974;27;96881;-49
2023/06/16 07:05:47;;;;;;;8.00;7.20;;;;;;;19.52;57.40;101476.75;5033203;27;102096;-49
2023/06/16 07:08:12;;;;;;;8.03;7.23;;;;;;;19.58;57.31;101477.41;5032787;27;97557;-47
2023/06/16 07:10:38;;;;;;;6.93;6.30;;;;;;;19.65;57.43;101476.75;5032812;27;102542;-48
2023/06/16 07:13:06;;;;;;;6.83;6.23;;;;;;;19.71;57.53;101474.63;5035941;27;96938;-47
2023/06/16 07:15:31;;;;;;;7.27;6.00;;;;;;;19.78;57.53;101480.31;5033210;27;97050;-48
2023/06/16 07:17:57;;;;;;;5.70;5.10;;;;;;;19.87;57.36;101474.31;5033325;27;96988;-48
2023/06/16 07:20:22;;;;;;;5.80;5.30;;;;;;;19.93;57.18;101474.94;5034677;27;102112;-48
2023/06/16 07:22:47;;;;;;;6.43;5.83;;;;;;;20.02;57.25;101471.72;5032194;27;97150;-47
2023/06/16 07:25:12;;;;;;;8.33;5.70;;;;;;;20.10;57.30;101463.44;5030855;27;97081;-49
2023/06/16 07:27:38;;;;;;;6.20;5.60;;;;;;;20.23;57.39;101474.63;5034677;27;97051;-48
2023/06/16 07:30:05;;;;;;;8.70;5.40;;;;;;;20.35;57.20;101478.69;5031514;27;96955;-49
2023/06/16 07:32:30;;;;;;;5.93;5.43;;;;;;;20.44;57.08;101477.50;5030242;27;97051;-49
2023/06/16 07:34:56;;;;;;;5.87;5.30;;;;;;;20.50;56.77;101472.50;5028466;27;97266;-47
2023/06/16 07:37:21;;;;;;;5.60;5.10;;;;;;;20.54;56.77;101478.53;5024004;27;98092;-47
2023/06/16 07:39:47;;;;;;;7.10;5.30;;;;;;;20.57;56.77;101478.22;5024612;27;105295;-46
2023/06/16 07:42:13;;;;;;;5.77;5.20;;;;;;;20.65;56.61;101473.44;5023847;27;97292;-48
2023/06/16 07:44:38;;;;;;;5.83;4.70;;;;;;;20.70;56.67;101475.38;5025032;27;97235;-47
2023/06/16 07:47:04;;;;;;;6.07;5.50;;;;;;;20.77;56.26;101471.88;5025621;27;97415;-48
2023/06/16 07:49:30;;;;;;;5.10;4.63;;;;;;;20.87;55.92;101481.31;5025880;27;98082;-47
2023/06/16 07:51:55;;;;;;;6.40;5.60;;;;;;;20.98;55.85;101476.75;5026396;27;98493;-46
2023/06/16 07:54:21;;;;;;;4.73;4.33;;;;;;;21.10;55.48;101473.16;5026171;27;97018;-47
2023/06/16 07:56:47;;;;;;;4.40;3.93;;;;;;;21.19;55.33;101488.72;5022290;27;97688;-48
2023/06/16 07:59:12;;;;;;;8.70;4.47;;;;;;;21.26;55.18;101474.78;5026152;27;96726;-47
2023/06/16 08:01:37;;;;;;;5.60;5.10;;;;;;;21.26;54.99;101469.19;5026159;27;97084;-48
2023/06/16 08:04:03;;;;;;;5.97;5.37;;;;;;;21.35;55.06;101474.31;5026679;27;97268;-47
2023/06/16 08:06:28;;;;;;;5.13;4.27;;;;;;;21.44;54.86;101461.88;5030318;27;97401;-49
2023/06/16 08:08:54;;;;;;;7.63;4.90;;;;;;;21.48;54.71;101467.88;5031668;27;97001;-48
2023/06/16 08:11:19;;;;;;;4.17;3.87;;;;;;;21.49;54.60;101461.72;5030041;27;97180;-48
2023/06/16 08:13:45;;;;;;;7.03;4.57;;;;;;;21.54;54.20;101460.81;5034204;27;97078;-47
2023/06/16 08:16:11;;;;;;;4.90;4.50;;;;;;;21.65;54.01;101468.16;5035712;27;105277;-48
2023/06/16 08:18:36;;;;;;;4.90;4.00;;;;;;;21.74;53.83;101455.72;5034685;27;97581;-48
2023/06/16 08:21:02;;;;;;;4.53;4.10;;;;;;;21.88;53.80;101466.31;5032171;27;97132;-49
2023/06/16 08:23:27;;;;;;;4.50;3.87;;;;;;;21.97;53.40;101451.78;5035269;27;97161;-48
2023/06/16 08:25:53;;;;;;;4.57;3.90;;;;;;;22.10;53.38;101457.25;5032652;27;103908;-49
2023/06/16 08:28:19;;;;;;;4.53;4.13;;;;;;;22.19;53.01;101456.72;5032734;27;97345;-48
2023/06/16 08:30:45;;;;;;;5.73;4.10;;;;;;;22.25;52.38;101448.91;5033092;27;97498;-49
2023/06/16 08:33:10;;;;;;;4.43;4.07;;;;;;;22.34;52.61;101461.66;5035504;27;96949;-48
2023/06/16 08:35:36;;;;;;;4.50;4.10;;;;;;;22.46;52.34;101451.59;5033703;27;98022;-48
2023/06/16 08:38:01;;;;;;;3.90;3.60;;;;;;;22.49;52.10;101447.69;5035252;27;97119;-49
2023/06/16 08:40:27;;;;;;;4.37;4.00;;;;;;;22.59;51.85;101451.47;5031057;27;96995;-46
2023/06/16 08:42:55;;;;;;;4.03;3.63;;;;;;;22.72;51.98;101447.75;5033897;27;96700;-49
2023/06/16 08:45:20;;;;;;;3.87;3.57;;;;;;;22.86;51.74;101449.84;5035507;27;98278;-48
2023/06/16 08:47:46;;;;;;;5.07;4.57;;;;;;;22.94;51.41;101455.44;5032511;27;97842;-49
2023/06/16 08:50:13;;;;;;;4.30;4.00;;;;;;;23.00;51.35;101453.19;5031612;27;96657;-49
2023/06/16 08:52:40;;;;;;;6.17;4.17;;;;;;;23.06;50.79;101456.59;5035595;27;96967;-47
2023/06/16 08:55:11;;;;;;;5.47;4.97;;;;;;;23.15;50.83;101470.06;5035849;27;98923;-47
2023/06/16 08:57:43;;;;;;;5.47;4.80;;;;;;;23.26;50.56;101452.09;5036809;27;97144;-48
2023/06/16 09:00:10;;;;;;;5.13;4.73;;;;;;;23.34;50.48;101445.19;5032070;27;97056;-49
2023/06/16 09:02:36;;;;;;;5.93;5.13;;;;;;;23.38;50.66;101447.63;5031884;27;97150;-48
2023/06/16 09:05:05;;;;;;;5.47;5.07;;;;;;;23.40;50.59;101450.59;5033560;27;96858;-48
2023/06/16 09:07:31;;;;;;;6.40;4.50;;;;;;;23.40;50.50;101450.59;5031603;27;98560;-48
2023/06/16 09:09:58;;;;;;;5.60;5.20;;;;;;;23.47;50.42;101450.59;5033004;27;97039;-48
2023/06/16 09:12:23;;;;;;;5.60;5.20;;;;;;;23.61;50.09;101442.72;5034726;27;97367;-49
2023/06/16 09:14:50;;;;;;;5.43;4.57;;;;;;;23.72;49.91;101448.69;5034817;27;98159;-49
2023/06/16 09:17:21;;;;;;;4.40;4.00;;;;;;;23.78;49.39;101434.44;5033138;27;97099;-48
2023/06/16 09:19:51;;;;;;;4.90;4.50;;;;;;;23.85;49.57;101430.88;5032596;27;97148;-49
2023/06/16 09:22:18;;;;;;;4.33;4.03;;;;;;;24.01;49.62;101437.16;5032551;27;97532;-49
2023/06/16 09:24:57;;;;;;;4.73;4.43;;;;;;;24.15;49.28;101433.59;5032174;27;99024;-48
2023/06/16 09:27:27;;;;;;;4.80;4.10;;;;;;;24.24;49.57;101440.66;5033236;27;97916;-48
2023/06/16 09:30:00;;;;;;;4.93;3.73;;;;;;;24.32;49.15;101435.75;5032946;27;96782;-48
2023/06/16 09:32:34;;;;;;;5.93;4.20;;;;;;;24.30;48.87;101432.75;5033407;27;97201;-47
2023/06/16 09:35:14;;;;;;;4.70;4.30;;;;;;;24.34;48.61;101430.28;5033767;27;97658;-49
2023/06/16 09:37:40;;;;;;;4.27;3.87;;;;;;;24.43;49.25;101424.06;5031382;27;98138;-48
2023/06/16 09:40:08;;;;;;;4.20;3.90;;;;;;;24.54;49.12;101427.19;5034703;27;97222;-48
2023/06/16 09:42:34;;;;;;;4.50;4.20;;;;;;;24.82;48.95;101428.13;5034073;27;96903;-48
2023/06/16 09:44:59;;;;;;;4.40;4.00;;;;;;;25.16;48.61;101420.53;5033327;27;97404;-48
2023/06/16 09:47:25;;;;;;;4.47;4.07;;;;;;;25.42;48.10;101419.22;5034421;27;97171;-47
2023/06/16 09:49:52;;;;;;;4.63;4.33;;;;;;;25.56;47.60;101419.63;5032950;27;97148;-47
2023/06/16 09:52:25;;;;;;;5.40;4.57;;;;;;;25.55;47.30;101418.91;5034683;27;97205;-47
2023/06/16 09:54:51;;;;;;;4.30;4.00;;;;;;;25.54;47.64;101413.81;5033563;27;97587;-49
2023/06/16 09:57:17;;;;;;;4.83;4.53;;;;;;;25.49;47.02;101420.47;5032476;27;97264;-47
2023/06/16 09:59:42;;;;;;;6.67;3.93;;;;;;;25.39;47.01;101419.56;5032480;27;97323;-48
2023/06/16 10:02:09;;;;;;;4.37;3.97;;;;;;;25.48;47.57;101416.91;5030885;27;97526;-48
2023/06/16 10:04:35;;;;;;;5.23;3.70;;;;;;;25.56;47.21;101417.56;5033473;27;98901;-48
2023/06/16 10:07:06;;;;;;;4.43;3.53;;;;;;;25.56;46.89;101413.97;5031784;27;98450;-48
2023/06/16 10:09:41;;;;;;;6.00;4.03;;;;;;;25.66;46.55;101412.00;5030726;27;97176;-48
2023/06/16 10:12:11;;;;;;;4.00;3.60;;;;;;;25.77;46.39;101403.06;5031345;27;97180;-47
2023/06/16 10:14:40;;;;;;;3.60;3.40;;;;;;;25.97;46.38;101399.78;5029708;27;97417;-48
2023/06/16 10:17:08;;;;;;;3.90;3.50;;;;;;;26.20;45.57;101402.34;5033325;27;97034;-49
2023/06/16 10:19:36;;;;;;;4.37;3.97;;;;;;;26.34;44.91;101402.72;5033687;27;96757;-47
2023/06/16 10:22:02;;;;;;;4.30;3.87;;;;;;;26.28;44.79;101402.22;5033362;27;97706;-48
2023/06/16 10:24:28;;;;;;;3.47;3.17;;;;;;;26.24;44.97;101407.56;5031096;27;97909;-47
2023/06/16 10:26:53;;;;;;;5.03;3.60;;;;;;;26.40;44.76;101403.94;5029544;27;97100;-48
2023/06/16 10:29:20;;;;;;;3.80;3.50;;;;;;;26.57;44.15;101386.94;5033720;27;97346;-48
2023/06/16 10:31:49;;;;;;;5.77;4.07;;;;;;;26.68;44.36;101392.03;5033521;27;97384;-48
2023/06/16 10:34:23;;;;;;;3.03;2.83;;;;;;;26.83;42.78;101381.84;5028981;27;99202;-47
2023/06/16 10:36:51;;;;;;;4.10;3.60;;;;;;;26.95;43.56;101377.13;5030054;27;98523;-49
2023/06/16 10:39:17;;;;;;;3.10;2.90;;;;;;;26.89;43.27;101380.22;5032842;27;97326;-48
2023/06/16 10:41:57;;;;;;;4.37;3.87;;;;;;;26.78;42.55;101388.53;5031908;27;96991;-47
2023/06/16 10:44:23;;;;;;;3.70;3.40;;;;;;;26.71;43.05;101381.66;5034573;27;97015;-49
2023/06/16 10:47:10;;;;;;;3.93;3.53;;;;;;;26.61;42.08;101378.78;5030250;27;98571;-49
2023/06/16 10:49:55;;;;;;;4.80;4.30;;;;;;;26.54;42.07;101379.63;5029768;27;96719;-48
2023/06/16 10:52:33;;;;;;;3.40;3.10;;;;;;;26.57;43.05;101375.66;5029924;27;97019;-47
2023/06/16 10:55:15;;;;;;;4.20;3.47;;;;;;;26.80;41.69;101380.22;5028647;27;97229;-48
2023/06/16 10:57:42;;;;;;;3.43;3.23;;;;;;;26.92;42.23;101381.13;5031187;27;99268;-48
2023/06/16 11:00:11;;;;;;;3.33;3.13;;;;;;;27.03;42.15;101374.91;5032445;27;97062;-48
2023/06/16 11:02:46;;;;;;;2.67;2.57;;;;;;;27.19;41.82;101381.81;5033532;27;97020;-49
2023/06/16 11:05:12;;;;;;;3.73;3.43;;;;;;;27.27;42.04;101371.09;5032263;27;97667;-48
2023/06/16 11:07:43;;;;;;;3.20;3.00;;;;;;;27.31;41.55;101374.22;5032017;27;97404;-47
2023/06/16 11:10:10;;;;;;;3.03;2.83;;;;;;;27.37;41.83;101377.53;5029422;27;97124;-48
2023/06/16 11:12:37;;;;;;;3.53;3.10;;;;;;;27.46;41.62;101371.88;5034448;27;97085;-49
2023/06/16 11:15:04;;;;;;;3.50;3.20;;;;;;;27.49;41.20;101369.97;5033146;27;97666;-49
2023/06/16 11:17:30;;;;;;;4.30;3.70;;;;;;;27.56;41.11;101362.66;5030430;27;97553;-48
2023/06/16 11:19:57;;;;;;;3.90;3.00;;;;;;;27.55;41.05;101356.25;5033645;27;96763;-48
2023/06/16 11:22:33;;;;;;;3.30;3.10;;;;;;;27.53;40.65;101364.59;5030828;27;97163;-49